Time;durP1;ratioP1;P1;durP2;ratioP2;P2;SDS_P1;SDS_P2;PMS_P1;PMS_P2;Temp;Humidity;BMP_temperature;BMP_pressure;BME280_temperature;BME280_humidity;BME280_pressure;Samples;Min_cycle;Max_cycle;Signal;HPM_P1;HPM_P2
2022/06/11 00:01:43;;;;;;;4.30;1.20;;;;;;;18.43;70.42;101370.52;107831;1278;60561;-82
2022/06/11 00:04:15;;;;;;;3.40;1.10;;;;;;;18.41;70.38;101370.57;107727;1279;75587;-83
2022/06/11 00:06:45;;;;;;;4.00;1.30;;;;;;;18.40;70.53;101374.00;107748;1279;71275;-83
2022/06/11 00:09:14;;;;;;;2.80;1.20;;;;;;;18.38;70.63;101369.41;107855;1277;73559;-83
2022/06/11 00:11:42;;;;;;;4.50;1.30;;;;;;;18.37;70.52;101369.51;107640;1279;62236;-83
2022/06/11 00:14:10;;;;;;;3.10;1.20;;;;;;;18.37;70.65;101368.19;107744;1278;60912;-82
2022/06/11 00:16:37;;;;;;;2.20;1.10;;;;;;;18.35;70.79;101365.70;107609;1276;75015;-83
2022/06/11 00:19:06;;;;;;;3.00;1.10;;;;;;;18.32;70.88;101365.27;107624;1278;72255;-83
2022/06/11 00:21:36;;;;;;;4.20;1.40;;;;;;;18.31;71.03;101366.75;107799;1278;74599;-82
2022/06/11 00:24:04;;;;;;;2.30;1.10;;;;;;;18.29;71.12;101363.58;107858;1278;60766;-83
2022/06/11 00:26:31;;;;;;;4.00;1.30;;;;;;;18.27;71.32;101360.60;107545;1277;61354;-83
2022/06/11 00:28:58;;;;;;;3.30;1.30;;;;;;;18.26;71.35;101360.19;107485;1277;74901;-83
2022/06/11 00:31:26;;;;;;;2.60;0.90;;;;;;;18.25;71.61;101354.48;107590;1279;72678;-82
2022/06/11 00:33:53;;;;;;;3.00;1.40;;;;;;;18.23;71.63;101351.56;107582;1279;74056;-82
2022/06/11 00:36:20;;;;;;;3.30;1.40;;;;;;;18.21;71.79;101352.94;107716;1279;61299;-83
2022/06/11 00:38:48;;;;;;;4.20;1.40;;;;;;;18.18;71.95;101349.88;107551;1279;61623;-83
2022/06/11 00:41:18;;;;;;;3.80;1.30;;;;;;;18.17;72.02;101347.40;107648;1279;74439;-84
2022/06/11 00:43:45;;;;;;;3.10;1.30;;;;;;;18.14;72.07;101346.45;107876;1277;72458;-83
2022/06/11 00:46:44;;;;;;;2.20;1.00;;;;;;;18.12;72.26;101347.08;107828;1277;74051;-85
2022/06/11 00:49:22;;;;;;;4.80;1.40;;;;;;;18.09;72.44;101340.84;108266;1277;62226;-83
2022/06/11 00:51:56;;;;;;;3.50;1.20;;;;;;;18.07;72.66;101339.44;108075;1279;59413;-83
2022/06/11 00:54:25;;;;;;;3.50;1.10;;;;;;;18.05;72.86;101342.39;107983;1277;76201;-88
2022/06/11 00:56:57;;;;;;;4.10;1.30;;;;;;;18.02;72.98;101336.22;108050;1278;71845;-82
2022/06/11 00:59:30;;;;;;;3.60;1.50;;;;;;;17.99;73.16;101333.58;108066;1279;72916;-83
2022/06/11 01:01:58;;;;;;;4.10;1.20;;;;;;;17.96;73.30;101332.52;108297;1277;62670;-85
2022/06/11 01:04:40;;;;;;;2.80;1.20;;;;;;;17.92;73.37;101337.98;108200;1278;60937;-83
2022/06/11 01:07:30;;;;;;;5.20;1.70;;;;;;;17.89;73.34;101337.08;107904;1277;74992;-82
2022/06/11 01:10:30;;;;;;;3.20;1.20;;;;;;;17.86;73.36;101338.80;107667;1279;71198;-83
2022/06/11 01:13:00;;;;;;;3.40;1.50;;;;;;;17.83;73.49;101338.11;107808;1279;74665;-83
2022/06/11 01:15:48;;;;;;;6.20;1.80;;;;;;;17.81;73.58;101336.92;107519;1279;62264;-83
2022/06/11 01:18:28;;;;;;;2.10;1.20;;;;;;;17.80;73.50;101337.16;107767;1277;60967;-83
2022/06/11 01:20:58;;;;;;;5.00;1.50;;;;;;;17.78;73.64;101333.98;107710;1278;74093;-83
2022/06/11 01:23:57;;;;;;;4.60;1.30;;;;;;;17.77;73.69;101335.06;107699;1279;71443;-83
2022/06/11 01:26:56;;;;;;;3.70;1.00;;;;;;;17.75;73.59;101330.23;107371;1277;74469;-82
2022/06/11 01:29:41;;;;;;;1.90;1.30;;;;;;;17.73;73.56;101327.45;107938;1277;62002;-83
2022/06/11 01:32:32;;;;;;;3.50;1.10;;;;;;;17.72;73.44;101324.87;107890;1277;61794;-83
2022/06/11 01:35:05;;;;;;;2.60;1.00;;;;;;;17.71;73.32;101322.92;107852;1277;75051;-83
2022/06/11 01:37:54;;;;;;;3.80;1.10;;;;;;;17.71;73.36;101320.73;107961;1277;73249;-82
2022/06/11 01:40:37;;;;;;;2.90;1.30;;;;;;;17.70;73.31;101316.57;107732;1278;73173;-82
2022/06/11 01:43:18;;;;;;;4.80;1.50;;;;;;;17.70;73.14;101315.95;107752;1277;63513;-83
2022/06/11 01:45:47;;;;;;;2.80;1.10;;;;;;;17.70;73.08;101310.78;107757;1278;60331;-83
2022/06/11 01:48:18;;;;;;;3.60;1.40;;;;;;;17.70;73.02;101307.15;107862;1279;74768;-82
2022/06/11 01:50:54;;;;;;;2.50;1.50;;;;;;;17.70;72.90;101307.27;107563;1278;71842;-82
2022/06/11 01:53:27;;;;;;;4.90;1.30;;;;;;;17.70;72.94;101303.39;107850;1278;73131;-83
2022/06/11 01:56:31;;;;;;;2.10;1.10;;;;;;;17.70;72.70;101301.05;107712;1277;62204;-83
2022/06/11 01:59:13;;;;;;;7.10;1.80;;;;;;;17.70;72.58;101305.33;107785;1278;61179;-83
2022/06/11 02:01:48;;;;;;;3.70;1.30;;;;;;;17.70;72.58;101304.63;107597;1279;76492;-83
2022/06/11 02:04:49;;;;;;;3.40;1.70;;;;;;;17.69;72.44;101302.73;107595;1277;71449;-83
2022/06/11 02:07:19;;;;;;;2.80;1.10;;;;;;;17.69;72.36;101303.64;107804;1277;72845;-82
2022/06/11 02:09:49;;;;;;;3.20;1.50;;;;;;;17.70;72.34;101304.30;107821;1277;64823;-82
2022/06/11 02:12:41;;;;;;;3.90;1.30;;;;;;;17.69;72.19;101303.35;107746;1277;60748;-82
2022/06/11 02:15:14;;;;;;;5.10;1.60;;;;;;;17.70;72.15;101302.20;107513;1279;74920;-82
2022/06/11 02:17:46;;;;;;;4.60;1.40;;;;;;;17.68;72.21;101296.02;107718;1277;71344;-83
2022/06/11 02:20:20;;;;;;;4.30;1.10;;;;;;;17.68;72.14;101302.28;107850;1278;74196;-82
2022/06/11 02:22:52;;;;;;;4.00;1.10;;;;;;;17.67;72.13;101298.11;107789;1277;62375;-82
2022/06/11 02:25:48;;;;;;;2.30;1.20;;;;;;;17.66;72.31;101297.28;107641;1279;61162;-82
2022/06/11 02:28:19;;;;;;;3.50;1.10;;;;;;;17.65;72.46;101300.35;107702;1277;75106;-82
2022/06/11 02:30:50;;;;;;;2.60;1.20;;;;;;;17.64;72.38;101301.92;107830;1278;72659;-83
2022/06/11 02:33:18;;;;;;;5.20;1.10;;;;;;;17.62;72.30;101303.91;107891;1279;72986;-83
2022/06/11 02:36:11;;;;;;;3.10;1.10;;;;;;;17.62;72.43;101303.58;107605;1277;62058;-83
2022/06/11 02:38:39;;;;;;;4.50;1.10;;;;;;;17.61;72.39;101301.41;107699;1277;61318;-83
2022/06/11 02:41:19;;;;;;;2.80;1.20;;;;;;;17.60;72.43;101303.11;107488;1279;76191;-83
2022/06/11 02:43:47;;;;;;;3.90;1.20;;;;;;;17.59;72.41;101303.77;107607;1277;71487;-83
2022/06/11 02:49:00;;;;;;;5.10;1.30;;;;;;;17.58;72.50;101303.61;107574;1277;62433;-82
2022/06/11 02:51:29;;;;;;;4.00;1.30;;;;;;;17.57;72.47;101303.52;107441;1279;61952;-83
2022/06/11 02:53:56;;;;;;;2.80;1.20;;;;;;;17.57;72.62;101302.38;107412;1279;74992;-83
2022/06/11 02:56:24;;;;;;;3.30;1.20;;;;;;;17.56;72.50;101302.98;107587;1277;71441;-82
2022/06/11 02:58:51;;;;;;;5.00;1.40;;;;;;;17.55;72.36;101304.17;107858;1279;74749;-83
2022/06/11 03:01:20;;;;;;;2.40;0.90;;;;;;;17.54;72.44;101301.59;107792;1277;63456;-83
2022/06/11 03:03:49;;;;;;;3.60;1.30;;;;;;;17.54;72.47;101301.98;107838;1278;60380;-83
2022/06/11 03:06:18;;;;;;;2.50;1.30;;;;;;;17.53;72.37;101301.52;107737;1277;75026;-83
2022/06/11 03:08:46;;;;;;;4.30;1.10;;;;;;;17.53;72.36;101302.91;107634;1279;72659;-83
2022/06/11 03:11:13;;;;;;;4.90;1.50;;;;;;;17.54;72.35;101300.89;107450;1279;73138;-83
2022/06/11 03:13:41;;;;;;;2.60;1.20;;;;;;;17.55;72.28;101301.00;107712;1279;63067;-83
2022/06/11 03:16:07;;;;;;;4.80;1.40;;;;;;;17.55;72.25;101296.47;107579;1278;60770;-83
2022/06/11 03:18:35;;;;;;;2.60;1.10;;;;;;;17.57;72.09;101304.35;107668;1279;74964;-83
2022/06/11 03:21:02;;;;;;;4.40;1.70;;;;;;;17.57;72.11;101304.42;107417;1279;71374;-83
2022/06/11 03:23:33;;;;;;;4.10;1.40;;;;;;;17.59;72.03;101306.20;107575;1279;73944;-83
2022/06/11 03:26:01;;;;;;;2.30;1.20;;;;;;;17.60;72.02;101311.37;107689;1279;61958;-83
2022/06/11 03:28:29;;;;;;;3.90;1.70;;;;;;;17.62;71.89;101310.95;107754;1279;60318;-82
2022/06/11 03:30:57;;;;;;;5.00;1.40;;;;;;;17.65;71.76;101311.82;107768;1278;76197;-83
2022/06/11 03:33:24;;;;;;;4.80;1.50;;;;;;;17.68;71.65;101311.03;107733;1279;72790;-83
2022/06/11 03:35:52;;;;;;;5.90;1.30;;;;;;;17.71;71.35;101314.62;107483;1278;72638;-83
2022/06/11 03:38:20;;;;;;;2.70;1.30;;;;;;;17.76;71.26;101315.90;107819;1279;62409;-83
2022/06/11 03:40:47;;;;;;;6.80;1.60;;;;;;;17.79;71.27;101314.00;107571;1279;59747;-83
2022/06/11 03:43:15;;;;;;;2.40;1.20;;;;;;;17.81;71.04;101315.45;107578;1279;75984;-83
2022/06/11 03:45:42;;;;;;;3.40;1.80;;;;;;;17.84;70.90;101314.45;107692;1279;72320;-82
2022/06/11 03:48:10;;;;;;;3.20;1.50;;;;;;;17.86;70.91;101314.61;107795;1279;73027;-82
2022/06/11 03:50:39;;;;;;;2.10;1.10;;;;;;;17.90;70.70;101314.48;107661;1279;63415;-84
2022/06/11 03:53:09;;;;;;;2.50;1.20;;;;;;;17.92;70.70;101313.44;107463;1279;60658;-82
2022/06/11 03:55:39;;;;;;;3.10;1.40;;;;;;;17.95;70.63;101320.05;107686;1277;75674;-82
2022/06/11 03:58:06;;;;;;;6.50;1.30;;;;;;;17.98;70.49;101322.23;107850;1278;72513;-82
2022/06/11 04:03:22;;;;;;;2.70;1.30;;;;;;;18.03;70.33;101329.54;107802;1279;64202;-82
2022/06/11 04:05:50;;;;;;;2.40;1.00;;;;;;;18.06;70.23;101330.57;107691;1279;61615;-83
2022/06/11 04:08:19;;;;;;;2.50;1.40;;;;;;;18.09;70.21;101333.38;107871;1279;75111;-82
2022/06/11 04:10:46;;;;;;;3.90;1.10;;;;;;;18.12;70.14;101337.98;107554;1279;71446;-82
2022/06/11 04:13:13;;;;;;;5.00;1.40;;;;;;;18.14;69.98;101337.12;107663;1279;75618;-83
2022/06/11 04:15:41;;;;;;;4.30;1.20;;;;;;;18.17;69.97;101340.13;107681;1278;62250;-83
2022/06/11 04:18:16;;;;;;;5.80;1.50;;;;;;;18.20;69.90;101341.20;107844;1278;60622;-82
2022/06/11 04:20:43;;;;;;;4.10;1.40;;;;;;;18.23;69.85;101349.08;107648;1279;76142;-83
2022/06/11 04:23:09;;;;;;;4.90;1.40;;;;;;;18.24;69.86;101349.52;107676;1279;71331;-83
2022/06/11 04:25:37;;;;;;;4.20;1.30;;;;;;;18.26;69.87;101346.59;107805;1279;73505;-83
2022/06/11 04:28:04;;;;;;;2.50;1.10;;;;;;;18.29;69.87;101344.64;107758;1279;62193;-83
2022/06/11 04:30:31;;;;;;;5.10;1.20;;;;;;;18.31;69.88;101347.91;107765;1278;62021;-84
2022/06/11 04:32:58;;;;;;;5.20;1.80;;;;;;;18.34;69.72;101347.91;107676;1279;75219;-83
2022/06/11 04:35:25;;;;;;;3.60;1.40;;;;;;;18.37;69.72;101351.16;107792;1277;71833;-84
2022/06/11 04:37:52;;;;;;;3.30;1.50;;;;;;;18.40;69.81;101349.50;107743;1279;74022;-83
2022/06/11 04:40:19;;;;;;;5.50;1.40;;;;;;;18.43;69.78;101350.45;107604;1280;62298;-84
2022/06/11 04:42:46;;;;;;;4.70;1.70;;;;;;;18.46;69.84;101355.36;107819;1278;59099;-84
2022/06/11 04:45:13;;;;;;;4.90;1.70;;;;;;;18.51;69.71;101352.73;107885;1279;74960;-89
2022/06/11 04:47:40;;;;;;;3.60;1.20;;;;;;;18.54;69.69;101352.39;107753;1278;72620;-85
2022/06/11 04:50:07;;;;;;;5.60;1.10;;;;;;;18.57;69.67;101347.95;107632;1279;71639;-86
2022/06/11 04:52:35;;;;;;;2.60;1.30;;;;;;;18.59;69.77;101351.96;107896;1277;64049;-86
2022/06/11 04:55:03;;;;;;;2.30;1.20;;;;;;;18.62;69.62;101354.23;107706;1279;60853;-86
2022/06/11 04:57:31;;;;;;;6.10;1.60;;;;;;;18.65;69.65;101352.56;107697;1277;74929;-86
2022/06/11 04:59:57;;;;;;;3.00;1.10;;;;;;;18.69;69.30;101353.95;107952;1278;71590;-86
2022/06/11 05:02:24;;;;;;;4.10;1.50;;;;;;;18.74;69.45;101351.81;107826;1277;72042;-87
2022/06/11 05:04:52;;;;;;;5.60;1.50;;;;;;;18.80;69.41;101353.66;107713;1278;65902;-86
2022/06/11 05:07:21;;;;;;;2.60;1.30;;;;;;;18.85;69.16;101353.09;107782;1279;61784;-86
2022/06/11 05:09:49;;;;;;;8.00;1.50;;;;;;;18.90;69.04;101357.16;107946;1279;74926;-86
2022/06/11 05:12:15;;;;;;;4.60;1.50;;;;;;;18.95;68.71;101358.41;107632;1279;72744;-86
2022/06/11 05:14:42;;;;;;;3.30;1.40;;;;;;;18.99;68.39;101363.29;107895;1279;73116;-86
2022/06/11 05:17:09;;;;;;;3.60;1.30;;;;;;;19.04;68.47;101363.13;107646;1281;62089;-86
2022/06/11 05:19:37;;;;;;;3.80;1.50;;;;;;;19.07;68.48;101366.73;107727;1278;61247;-86
2022/06/11 05:22:04;;;;;;;6.50;1.50;;;;;;;19.11;68.47;101370.54;107527;1279;74884;-86
2022/06/11 05:24:32;;;;;;;6.20;1.30;;;;;;;19.15;68.45;101371.92;107772;1277;71360;-86
2022/06/11 05:27:03;;;;;;;2.60;1.10;;;;;;;19.18;68.81;101377.34;107654;1279;73038;-87
2022/06/11 05:29:48;;;;;;;3.00;1.40;;;;;;;19.21;68.87;101377.77;107639;1279;62060;-87
2022/06/11 05:32:16;;;;;;;4.60;1.10;;;;;;;19.25;68.70;101382.84;107677;1279;60608;-87
2022/06/11 05:34:44;;;;;;;2.30;1.10;;;;;;;19.28;68.61;101379.35;107915;1279;74900;-86
2022/06/11 05:37:12;;;;;;;2.60;1.20;;;;;;;19.31;68.30;101378.79;107767;1277;72554;-87
2022/06/11 05:39:41;;;;;;;2.80;1.10;;;;;;;19.35;68.24;101379.72;107538;1279;72940;-86
2022/06/11 05:42:08;;;;;;;3.30;1.30;;;;;;;19.42;68.16;101382.57;107668;1279;63221;-87
2022/06/11 05:44:36;;;;;;;7.70;1.90;;;;;;;19.48;67.89;101387.36;107748;1279;60602;-87
2022/06/11 05:47:03;;;;;;;3.90;1.50;;;;;;;19.55;67.67;101387.33;107511;1279;74946;-86
2022/06/11 05:49:37;;;;;;;2.20;1.20;;;;;;;19.62;67.39;101385.88;107763;1279;71850;-86
2022/06/11 05:52:09;;;;;;;3.00;1.10;;;;;;;19.69;67.55;101392.46;107910;1279;72962;-88
2022/06/11 05:54:36;;;;;;;4.30;1.40;;;;;;;19.75;67.72;101388.17;107809;1279;63678;-87
2022/06/11 05:57:06;;;;;;;2.80;1.30;;;;;;;19.80;68.02;101388.83;107813;1279;61394;-87
2022/06/11 05:59:38;;;;;;;3.70;1.20;;;;;;;19.86;67.77;101383.94;107715;1279;76277;-85
2022/06/11 06:02:10;;;;;;;5.20;1.60;;;;;;;19.90;67.70;101384.48;107798;1279;71376;-85
2022/06/11 06:04:40;;;;;;;3.80;1.40;;;;;;;19.91;67.51;101386.76;107561;1279;73121;-85
2022/06/11 06:07:08;;;;;;;4.00;1.80;;;;;;;19.91;67.97;101391.17;107796;1279;64257;-85
2022/06/11 06:09:36;;;;;;;2.40;1.10;;;;;;;19.91;67.96;101390.36;107894;1278;60862;-85
2022/06/11 06:12:04;;;;;;;6.00;1.90;;;;;;;19.90;68.11;101391.20;107647;1279;76216;-87
2022/06/11 06:14:31;;;;;;;5.50;1.40;;;;;;;19.92;67.90;101393.54;107728;1279;71726;-85
2022/06/11 06:16:58;;;;;;;4.80;1.50;;;;;;;20.00;68.10;101400.40;107548;1279;73205;-85
2022/06/11 06:19:45;;;;;;;6.00;1.70;;;;;;;20.10;68.13;101395.38;107621;1279;64157;-87
2022/06/11 06:22:12;;;;;;;5.30;1.60;;;;;;;20.25;67.28;101401.65;107803;1279;60746;-86
2022/06/11 06:24:39;;;;;;;3.80;2.10;;;;;;;20.35;66.52;101408.89;107647;1279;76187;-87
2022/06/11 06:27:06;;;;;;;5.20;1.70;;;;;;;20.39;66.77;101407.45;107819;1280;72487;-87
2022/06/11 06:29:33;;;;;;;4.90;1.30;;;;;;;20.42;66.56;101411.23;107381;1279;73133;-86
2022/06/11 06:32:00;;;;;;;2.60;1.60;;;;;;;20.48;66.47;101413.17;107718;1279;63272;-87
2022/06/11 06:34:27;;;;;;;3.70;1.30;;;;;;;20.60;66.22;101415.88;107577;1278;61891;-86
2022/06/11 06:36:54;;;;;;;4.40;1.60;;;;;;;20.68;65.84;101416.13;107900;1279;76946;-86
2022/06/11 06:39:21;;;;;;;6.50;2.10;;;;;;;20.81;65.93;101421.04;107668;1279;71345;-86
2022/06/11 06:41:49;;;;;;;3.90;1.30;;;;;;;20.95;65.58;101421.45;107691;1279;74280;-87
2022/06/11 06:44:16;;;;;;;3.30;1.30;;;;;;;21.07;65.10;101414.83;108203;1279;61059;-88
2022/06/11 06:46:43;;;;;;;4.70;2.00;;;;;;;21.18;64.65;101423.45;108225;1278;61087;-87
2022/06/11 06:49:15;;;;;;;5.10;1.80;;;;;;;21.29;64.31;101419.73;108325;1279;75127;-87
2022/06/11 06:51:42;;;;;;;4.30;1.70;;;;;;;21.40;63.94;101419.85;107928;1279;71477;-87
2022/06/11 06:54:10;;;;;;;5.40;2.20;;;;;;;21.55;64.28;101422.46;108124;1279;72752;-87
2022/06/11 06:56:37;;;;;;;5.00;2.00;;;;;;;21.69;63.37;101417.65;108045;1278;64118;-87
2022/06/11 06:59:05;;;;;;;4.60;1.60;;;;;;;21.82;63.06;101417.70;108263;1278;60855;-87
2022/06/11 07:01:32;;;;;;;8.50;2.10;;;;;;;21.90;63.02;101424.05;108114;1278;74967;-88
2022/06/11 07:03:59;;;;;;;6.00;1.90;;;;;;;21.95;62.76;101420.36;108182;1279;72028;-89
2022/06/11 07:06:46;;;;;;;3.90;2.00;;;;;;;22.01;62.99;101421.77;108184;1279;74445;-89
2022/06/11 07:09:13;;;;;;;5.40;2.50;;;;;;;21.99;62.81;101423.90;108301;1279;60737;-88
2022/06/11 07:11:40;;;;;;;6.10;2.80;;;;;;;22.00;63.18;101423.77;108163;1279;60753;-90
2022/06/11 07:14:07;;;;;;;6.40;2.20;;;;;;;21.98;63.27;101419.97;108082;1279;75176;-89
2022/06/11 07:16:41;;;;;;;6.30;3.00;;;;;;;21.95;63.52;101422.73;107948;1278;72227;-89
2022/06/11 07:19:16;;;;;;;9.80;2.60;;;;;;;21.92;63.88;101421.35;108007;1278;72750;-88
2022/06/11 07:21:49;;;;;;;5.40;2.80;;;;;;;21.91;63.93;101422.61;107903;1278;60646;-90
2022/06/11 07:24:19;;;;;;;6.10;2.20;;;;;;;21.86;64.77;101423.73;107916;1279;61901;-89
2022/06/11 07:26:57;;;;;;;4.50;2.60;;;;;;;21.74;64.08;101425.86;107872;1277;76013;-88
2022/06/11 07:29:28;;;;;;;6.50;2.90;;;;;;;21.73;64.85;101424.16;107925;1279;71524;-88
2022/06/11 07:32:01;;;;;;;5.90;2.50;;;;;;;21.76;64.55;101422.52;107440;1279;73238;-88
2022/06/11 07:34:28;;;;;;;6.80;2.20;;;;;;;21.84;63.39;101425.02;107928;1279;59654;-88
2022/06/11 07:36:58;;;;;;;4.70;2.00;;;;;;;21.83;62.01;101427.98;107510;1279;62018;-88
2022/06/11 07:39:25;;;;;;;4.10;1.60;;;;;;;21.77;61.23;101430.52;107624;1280;75006;-88
2022/06/11 07:41:52;;;;;;;4.50;1.80;;;;;;;21.74;60.78;101436.02;107568;1279;71538;-88
2022/06/11 07:44:19;;;;;;;6.30;2.00;;;;;;;21.71;59.96;101439.18;107499;1280;74925;-89
2022/06/11 07:46:46;;;;;;;5.20;2.20;;;;;;;21.70;60.72;101443.48;107552;1279;60506;-87
2022/06/11 07:49:13;;;;;;;4.90;1.90;;;;;;;21.59;60.09;101439.53;107829;1278;60627;-88
2022/06/11 07:51:40;;;;;;;4.20;1.80;;;;;;;21.59;60.90;101439.20;107966;1279;76039;-88
2022/06/11 07:54:07;;;;;;;5.10;1.30;;;;;;;21.69;59.89;101439.08;107486;1281;71448;-89
2022/06/11 07:56:37;;;;;;;3.50;1.20;;;;;;;21.83;58.73;101438.08;107804;1279;72835;-88
2022/06/11 07:59:05;;;;;;;4.20;1.20;;;;;;;21.94;57.30;101439.39;107675;1278;61553;-88
2022/06/11 08:01:32;;;;;;;3.00;1.00;;;;;;;21.88;56.59;101434.97;107577;1280;61824;-89
2022/06/11 08:04:00;;;;;;;1.30;0.80;;;;;;;21.90;56.73;101434.48;107375;1278;75990;-88
2022/06/11 08:06:27;;;;;;;3.30;1.20;;;;;;;21.85;55.92;101442.08;107595;1281;71030;-88
2022/06/11 08:08:54;;;;;;;6.90;1.50;;;;;;;21.77;56.51;101446.48;107714;1281;73629;-88
2022/06/11 08:11:21;;;;;;;3.70;1.10;;;;;;;21.77;56.95;101436.85;107725;1281;60809;-88
2022/06/11 08:13:48;;;;;;;2.10;0.80;;;;;;;21.93;57.89;101428.45;107684;1281;60940;-89
2022/06/11 08:16:15;;;;;;;4.20;1.10;;;;;;;22.06;56.23;101426.79;107561;1278;75967;-89
2022/06/11 08:18:44;;;;;;;3.70;1.60;;;;;;;22.13;55.52;101431.19;107836;1278;71515;-89
2022/06/11 08:21:10;;;;;;;4.10;0.90;;;;;;;22.15;54.86;101435.45;107575;1280;74055;-89
2022/06/11 08:23:39;;;;;;;2.50;1.00;;;;;;;22.19;55.55;101432.52;107483;1280;61143;-88
2022/06/11 08:26:06;;;;;;;3.00;0.90;;;;;;;22.20;55.17;101432.11;107730;1279;60045;-88
2022/06/11 08:28:33;;;;;;;3.80;1.00;;;;;;;22.27;55.31;101434.02;107886;1278;75001;-89
2022/06/11 08:31:07;;;;;;;1.50;0.70;;;;;;;22.31;54.70;101427.98;107703;1280;71551;-89
2022/06/11 08:33:34;;;;;;;2.50;0.80;;;;;;;22.40;55.08;101424.44;107698;1278;71087;-89
2022/06/11 08:36:01;;;;;;;3.70;1.00;;;;;;;22.51;55.46;101424.14;107843;1280;60610;-89
2022/06/11 08:38:32;;;;;;;1.10;0.50;;;;;;;22.63;54.52;101424.45;107638;1279;62528;-88
2022/06/11 08:40:59;;;;;;;1.80;0.70;;;;;;;22.70;53.02;101425.04;107892;1280;75213;-89
2022/06/11 08:43:32;;;;;;;1.20;0.50;;;;;;;22.77;53.37;101425.39;107638;1279;71236;-90
2022/06/11 08:46:08;;;;;;;1.80;0.60;;;;;;;22.80;52.27;101423.38;107839;1277;74021;-90
2022/06/11 08:48:49;;;;;;;2.00;0.80;;;;;;;22.84;52.51;101428.51;107464;1278;349444;-90
2022/06/11 08:51:28;;;;;;;1.10;0.60;;;;;;;22.91;52.60;101422.77;107848;1277;60663;-91
2022/06/11 08:54:02;;;;;;;2.00;0.80;;;;;;;23.04;52.84;101422.35;107804;1280;76187;-91
2022/06/11 08:56:48;;;;;;;2.20;0.60;;;;;;;23.14;51.81;101421.95;107650;1280;71916;-90
2022/06/11 08:59:35;;;;;;;3.30;0.60;;;;;;;23.21;51.11;101423.39;107845;1278;74611;-88
2022/06/11 09:02:20;;;;;;;;;;;;;;;23.20;52.00;101421.58;107727;1280;60401;-90
2022/06/11 09:05:11;;;;;;;1.30;0.60;;;;;;;23.25;51.75;101421.89;107738;1280;61288;-89
2022/06/11 09:07:50;;;;;;;1.50;0.60;;;;;;;23.38;51.70;101417.35;108003;1277;75006;-90
2022/06/11 09:10:31;;;;;;;1.30;0.50;;;;;;;23.44;50.63;101421.48;108218;1280;72517;-88
2022/06/11 09:13:00;;;;;;;3.70;0.60;;;;;;;23.56;50.21;101421.44;108226;1277;74023;-89
2022/06/11 09:15:50;;;;;;;1.00;0.60;;;;;;;23.62;49.39;101423.10;108317;1277;60804;-89
2022/06/11 09:18:51;;;;;;;1.20;0.50;;;;;;;23.64;49.27;101426.87;108251;1280;60091;-89
2022/06/11 09:21:38;;;;;;;2.00;0.80;;;;;;;23.73;49.41;101420.59;108270;1277;75624;-88
2022/06/11 09:24:21;;;;;;;1.40;0.60;;;;;;;23.83;49.60;101418.34;108141;1277;71132;-88
2022/06/11 09:27:47;;;;;;;1.40;0.70;;;;;;;23.94;49.29;101416.23;107989;1280;72861;-89
2022/06/11 09:30:27;;;;;;;1.60;0.60;;;;;;;24.05;48.40;101418.47;107734;1281;60740;-89
2022/06/11 09:33:00;;;;;;;2.30;0.60;;;;;;;24.09;48.27;101420.41;108283;1278;60660;-89
2022/06/11 09:35:50;;;;;;;0.90;0.40;;;;;;;24.08;48.66;101419.00;108002;1277;73935;-90
2022/06/11 09:38:46;;;;;;;1.40;0.50;;;;;;;24.13;47.84;101422.10;108054;1277;71458;-89
2022/06/11 09:41:57;;;;;;;1.60;0.90;;;;;;;24.06;47.69;101419.73;107028;1281;73521;-90
2022/06/11 09:44:27;;;;;;;2.10;0.70;;;;;;;24.10;46.93;101424.61;107803;1277;60924;-90
2022/06/11 09:47:03;;;;;;;1.60;0.40;;;;;;;24.14;47.24;101424.52;107782;1277;60198;-88
2022/06/11 09:50:06;;;;;;;1.70;0.60;;;;;;;24.30;46.81;101423.45;107815;1277;76380;-87
2022/06/11 09:52:41;;;;;;;1.30;0.50;;;;;;;24.45;46.99;101420.40;107976;1277;71812;-87
2022/06/11 09:55:17;;;;;;;1.40;0.60;;;;;;;24.57;45.54;101427.93;107888;1278;71901;-89
2022/06/11 09:58:01;;;;;;;0.90;0.30;;;;;;;24.77;45.18;101425.79;107851;1277;61031;-87
2022/06/11 10:00:57;;;;;;;2.00;0.40;;;;;;;24.83;44.68;101428.96;107580;1278;61271;-87
2022/06/11 10:03:39;;;;;;;1.30;0.60;;;;;;;24.85;44.16;101428.18;107788;1281;76019;-87
2022/06/11 10:06:22;;;;;;;1.90;0.50;;;;;;;25.01;43.96;101432.64;107746;1277;72199;-88
2022/06/11 10:08:53;;;;;;;5.20;0.50;;;;;;;25.20;43.79;101431.36;107931;1277;73117;-87
2022/06/11 10:11:29;;;;;;;2.30;0.60;;;;;;;25.18;43.38;101440.84;107706;1279;62252;-86
2022/06/11 10:16:59;;;;;;;0.90;0.30;;;;;;;25.07;43.65;101438.96;107609;1279;74905;-87
2022/06/11 10:20:05;;;;;;;1.50;0.40;;;;;;;25.21;43.86;101448.36;107453;1279;72277;-86
2022/06/11 10:22:36;;;;;;;1.60;0.40;;;;;;;25.43;43.62;101430.75;107474;1279;71442;-88
2022/06/11 10:25:37;;;;;;;1.00;0.30;;;;;;;25.52;43.85;101440.45;107662;1279;60645;-88
2022/06/11 10:28:21;;;;;;;1.50;0.60;;;;;;;25.49;43.95;101438.14;107371;1279;61251;-87
2022/06/11 10:30:54;;;;;;;1.30;0.40;;;;;;;25.24;43.81;101451.27;107819;1277;74053;-87
2022/06/11 10:33:53;;;;;;;0.80;0.40;;;;;;;24.94;43.60;101452.53;107827;1278;71127;-87
2022/06/11 10:36:38;;;;;;;1.30;0.40;;;;;;;24.70;44.84;101442.41;107924;1277;73162;-87
2022/06/11 10:39:20;;;;;;;1.00;0.40;;;;;;;24.53;45.29;101448.25;107680;1277;60663;-88
2022/06/11 10:42:11;;;;;;;1.00;0.50;;;;;;;24.44;45.77;101452.07;107298;1278;60339;-87
2022/06/11 10:44:49;;;;;;;2.80;0.40;;;;;;;24.51;46.42;101443.19;107684;1278;76192;-87
2022/06/11 10:47:16;;;;;;;1.50;0.50;;;;;;;24.53;46.39;101449.14;107459;1280;71825;-87
2022/06/11 10:49:51;;;;;;;1.30;0.50;;;;;;;24.62;46.22;101448.65;107313;1279;72187;-86
2022/06/11 10:52:28;;;;;;;3.40;0.50;;;;;;;24.87;45.42;101446.16;107762;1279;61278;-87
2022/06/11 10:54:55;;;;;;;1.50;0.40;;;;;;;25.08;44.81;101447.02;107768;1278;60729;-86
2022/06/11 10:57:27;;;;;;;1.70;0.80;;;;;;;25.29;44.89;101448.48;107615;1281;74943;-86
2022/06/11 11:00:14;;;;;;;1.30;0.40;;;;;;;25.55;44.20;101439.93;107667;1279;72629;-86
2022/06/11 11:02:48;;;;;;;1.00;0.40;;;;;;;25.84;43.34;101439.82;107793;1277;73132;-87
2022/06/11 11:05:18;;;;;;;1.00;0.50;;;;;;;25.93;42.70;101438.28;107736;1277;60084;-87
2022/06/11 11:07:58;;;;;;;1.80;0.70;;;;;;;26.08;43.06;101431.86;107304;1279;61139;-87
2022/06/11 11:10:29;;;;;;;1.70;0.40;;;;;;;25.93;42.35;101441.48;107919;1277;76783;-90
2022/06/11 11:13:02;;;;;;;2.10;0.70;;;;;;;25.55;42.31;101444.70;108046;1277;72524;-88
2022/06/11 11:15:38;;;;;;;1.60;0.50;;;;;;;25.29;42.91;101450.21;107468;1279;72992;-89
2022/06/11 11:18:21;;;;;;;3.90;0.60;;;;;;;24.91;42.81;101449.58;107624;1279;61307;-90
2022/06/11 11:20:53;;;;;;;3.40;0.50;;;;;;;24.64;43.76;101451.40;107734;1278;59290;-88
2022/06/11 11:23:27;;;;;;;1.60;0.40;;;;;;;24.55;44.82;101445.21;107750;1277;75915;-89
2022/06/11 11:26:07;;;;;;;;;;;;;;;24.40;45.57;101445.33;107955;1277;73127;-88
2022/06/11 11:28:57;;;;;;;1.00;0.40;;;;;;;24.24;45.91;101443.70;107811;1277;72968;-89
2022/06/11 11:31:31;;;;;;;2.40;0.40;;;;;;;24.38;45.86;101450.46;107840;1277;60694;-90
2022/06/11 11:34:10;;;;;;;1.60;0.60;;;;;;;24.76;45.32;101450.73;107791;1277;60657;-89
2022/06/11 11:36:39;;;;;;;1.30;0.40;;;;;;;25.04;44.54;101448.38;107894;1277;75118;-90
2022/06/11 11:39:12;;;;;;;1.40;0.60;;;;;;;25.28;43.90;101445.84;107849;1279;72957;-91
2022/06/11 11:41:52;;;;;;;1.20;0.50;;;;;;;25.39;43.92;101448.09;107558;1279;73699;-89
2022/06/11 11:47:03;;;;;;;1.80;0.60;;;;;;;25.17;42.56;101442.72;107635;1268;176335;-86
2022/06/11 11:49:33;;;;;;;1.30;0.40;;;;;;;25.11;43.72;101443.02;107672;1279;77008;-86
2022/06/11 11:52:14;;;;;;;1.00;0.40;;;;;;;25.05;44.01;101442.26;107772;1279;71673;-86
2022/06/11 11:54:56;;;;;;;2.20;0.60;;;;;;;25.27;44.24;101440.84;107987;1279;73150;-86
2022/06/11 11:57:31;;;;;;;2.40;0.70;;;;;;;25.52;43.17;101444.63;107840;1279;61479;-86